sensor_id;sensor_type;location;lat;lon;timestamp;temperature;humidity
16523;DHT22;19889;52.546;13.348;2022-10-23T00:00:11;15.90;99.90
16523;DHT22;19889;52.546;13.348;2022-10-23T00:02:37;15.90;99.90
16523;DHT22;19889;52.546;13.348;2022-10-23T00:05:05;15.90;99.90
16523;DHT22;19889;52.546;13.348;2022-10-23T00:07:33;15.80;99.90
16523;DHT22;19889;52.546;13.348;2022-10-23T00:10:00;15.80;99.90
16523;DHT22;19889;52.546;13.348;2022-10-23T00:12:26;15.80;99.90
16523;DHT22;19889;52.546;13.348;2022-10-23T00:14:53;15.70;99.90
16523;DHT22;19889;52.546;13.348;2022-10-23T00:17:20;15.80;99.90
16523;DHT22;19889;52.546;13.348;2022-10-23T00:19:47;15.80;99.90
16523;DHT22;19889;52.546;13.348;2022-10-23T00:22:13;15.80;99.90
16523;DHT22;19889;52.546;13.348;2022-10-23T00:24:41;15.80;99.90
16523;DHT22;19889;52.546;13.348;2022-10-23T00:27:08;15.80;99.90
16523;DHT22;19889;52.546;13.348;2022-10-23T00:29:35;15.80;99.90
16523;DHT22;19889;52.546;13.348;2022-10-23T00:32:02;15.80;99.90
16523;DHT22;19889;52.546;13.348;2022-10-23T00:34:28;15.80;99.90
16523;DHT22;19889;52.546;13.348;2022-10-23T00:36:55;15.70;99.90
16523;DHT22;19889;52.546;13.348;2022-10-23T00:39:22;15.70;99.90
16523;DHT22;19889;52.546;13.348;2022-10-23T00:41:50;15.70;99.90
16523;DHT22;19889;52.546;13.348;2022-10-23T00:47:17;15.70;99.90
16523;DHT22;19889;52.546;13.348;2022-10-23T00:49:44;15.70;99.90
16523;DHT22;19889;52.546;13.348;2022-10-23T00:52:12;15.70;99.90
16523;DHT22;19889;52.546;13.348;2022-10-23T00:54:41;15.70;99.90
16523;DHT22;19889;52.546;13.348;2022-10-23T00:57:12;15.70;99.90
16523;DHT22;19889;52.546;13.348;2022-10-23T00:59:42;15.70;99.90
16523;DHT22;19889;52.546;13.348;2022-10-23T01:02:09;15.60;99.90
16523;DHT22;19889;52.546;13.348;2022-10-23T01:04:36;15.70;99.90
16523;DHT22;19889;52.546;13.348;2022-10-23T01:07:07;15.70;99.90
16523;DHT22;19889;52.546;13.348;2022-10-23T01:09:40;15.70;99.90
16523;DHT22;19889;52.546;13.348;2022-10-23T01:12:15;15.70;99.90
16523;DHT22;19889;52.546;13.348;2022-10-23T01:14:52;15.70;99.90
16523;DHT22;19889;52.546;13.348;2022-10-23T01:17:26;15.70;99.90
16523;DHT22;19889;52.546;13.348;2022-10-23T01:20:03;15.70;99.90
16523;DHT22;19889;52.546;13.348;2022-10-23T01:22:43;15.70;99.90
16523;DHT22;19889;52.546;13.348;2022-10-23T01:25:22;15.70;99.90
16523;DHT22;19889;52.546;13.348;2022-10-23T01:27:55;15.70;99.90
16523;DHT22;19889;52.546;13.348;2022-10-23T01:30:25;15.80;99.90
16523;DHT22;19889;52.546;13.348;2022-10-23T01:32:55;15.80;99.90
16523;DHT22;19889;52.546;13.348;2022-10-23T01:35:27;15.70;99.90
16523;DHT22;19889;52.546;13.348;2022-10-23T01:38:04;15.70;99.90
16523;DHT22;19889;52.546;13.348;2022-10-23T01:40:33;15.70;99.90
16523;DHT22;19889;52.546;13.348;2022-10-23T01:43:07;15.80;99.90
16523;DHT22;19889;52.546;13.348;2022-10-23T01:45:38;15.70;99.90
16523;DHT22;19889;52.546;13.348;2022-10-23T01:48:12;15.70;99.90
16523;DHT22;19889;52.546;13.348;2022-10-23T01:50:41;15.70;99.90
16523;DHT22;19889;52.546;13.348;2022-10-23T01:53:10;15.70;99.90
16523;DHT22;19889;52.546;13.348;2022-10-23T01:55:37;15.70;99.90
16523;DHT22;19889;52.546;13.348;2022-10-23T01:58:11;15.70;99.90
16523;DHT22;19889;52.546;13.348;2022-10-23T02:00:41;15.70;99.90
16523;DHT22;19889;52.546;13.348;2022-10-23T02:03:11;15.70;99.90
16523;DHT22;19889;52.546;13.348;2022-10-23T02:05:39;15.70;99.90
16523;DHT22;19889;52.546;13.348;2022-10-23T02:08:06;15.70;99.90
16523;DHT22;19889;52.546;13.348;2022-10-23T02:10:40;15.70;99.90
16523;DHT22;19889;52.546;13.348;2022-10-23T02:13:14;15.70;99.90
16523;DHT22;19889;52.546;13.348;2022-10-23T02:15:46;15.70;99.90
16523;DHT22;19889;52.546;13.348;2022-10-23T02:18:25;15.60;99.90
16523;DHT22;19889;52.546;13.348;2022-10-23T02:20:55;15.60;99.90
16523;DHT22;19889;52.546;13.348;2022-10-23T02:23:28;15.60;99.90
16523;DHT22;19889;52.546;13.348;2022-10-23T02:25:59;15.60;99.90
16523;DHT22;19889;52.546;13.348;2022-10-23T02:28:43;15.60;99.90
16523;DHT22;19889;52.546;13.348;2022-10-23T02:31:14;15.60;99.90
16523;DHT22;19889;52.546;13.348;2022-10-23T02:33:43;15.60;99.90
16523;DHT22;19889;52.546;13.348;2022-10-23T02:36:11;15.60;99.90
16523;DHT22;19889;52.546;13.348;2022-10-23T02:38:40;15.60;99.90
16523;DHT22;19889;52.546;13.348;2022-10-23T02:41:24;15.60;99.90
16523;DHT22;19889;52.546;13.348;2022-10-23T02:44:04;15.60;99.90
16523;DHT22;19889;52.546;13.348;2022-10-23T02:46:40;15.60;99.90
16523;DHT22;19889;52.546;13.348;2022-10-23T02:49:14;15.60;99.90
16523;DHT22;19889;52.546;13.348;2022-10-23T02:51:53;15.50;99.90
16523;DHT22;19889;52.546;13.348;2022-10-23T02:54:34;15.60;99.90
16523;DHT22;19889;52.546;13.348;2022-10-23T02:57:12;15.50;99.90
16523;DHT22;19889;52.546;13.348;2022-10-23T02:59:51;15.50;99.90
16523;DHT22;19889;52.546;13.348;2022-10-23T03:02:23;15.50;99.90
16523;DHT22;19889;52.546;13.348;2022-10-23T03:04:52;15.50;99.90
16523;DHT22;19889;52.546;13.348;2022-10-23T03:07:19;15.50;99.90
16523;DHT22;19889;52.546;13.348;2022-10-23T03:09:46;15.50;99.90
16523;DHT22;19889;52.546;13.348;2022-10-23T03:12:13;15.50;99.90
16523;DHT22;19889;52.546;13.348;2022-10-23T03:14:40;15.50;99.90
16523;DHT22;19889;52.546;13.348;2022-10-23T03:17:09;15.50;99.90
16523;DHT22;19889;52.546;13.348;2022-10-23T03:19:35;15.50;99.90
16523;DHT22;19889;52.546;13.348;2022-10-23T03:22:03;15.40;99.90
16523;DHT22;19889;52.546;13.348;2022-10-23T03:24:30;15.40;99.90
16523;DHT22;19889;52.546;13.348;2022-10-23T03:26:57;15.40;99.90
16523;DHT22;19889;52.546;13.348;2022-10-23T03:29:29;15.40;99.90
16523;DHT22;19889;52.546;13.348;2022-10-23T03:31:56;15.40;99.90
16523;DHT22;19889;52.546;13.348;2022-10-23T03:34:24;15.30;99.90
16523;DHT22;19889;52.546;13.348;2022-10-23T03:36:52;15.30;99.90
16523;DHT22;19889;52.546;13.348;2022-10-23T03:39:19;15.30;99.90
16523;DHT22;19889;52.546;13.348;2022-10-23T03:41:47;15.30;99.90
16523;DHT22;19889;52.546;13.348;2022-10-23T03:44:15;15.30;99.90
16523;DHT22;19889;52.546;13.348;2022-10-23T03:46:44;15.30;99.90
16523;DHT22;19889;52.546;13.348;2022-10-23T03:49:10;15.30;99.90
16523;DHT22;19889;52.546;13.348;2022-10-23T03:51:43;15.20;99.90
16523;DHT22;19889;52.546;13.348;2022-10-23T03:54:17;15.20;99.90
16523;DHT22;19889;52.546;13.348;2022-10-23T03:56:44;15.20;99.90
16523;DHT22;19889;52.546;13.348;2022-10-23T03:59:11;15.20;99.90
16523;DHT22;19889;52.546;13.348;2022-10-23T04:01:37;15.20;99.90
16523;DHT22;19889;52.546;13.348;2022-10-23T04:04:04;15.10;99.90
16523;DHT22;19889;52.546;13.348;2022-10-23T04:06:31;15.10;99.90
16523;DHT22;19889;52.546;13.348;2022-10-23T04:08:59;15.10;99.90
16523;DHT22;19889;52.546;13.348;2022-10-23T04:11:26;15.10;99.90
16523;DHT22;19889;52.546;13.348;2022-10-23T04:13:53;15.00;99.90
16523;DHT22;19889;52.546;13.348;2022-10-23T04:16:19;15.10;99.90
16523;DHT22;19889;52.546;13.348;2022-10-23T04:18:46;15.10;99.90
16523;DHT22;19889;52.546;13.348;2022-10-23T04:21:13;15.00;99.90
16523;DHT22;19889;52.546;13.348;2022-10-23T04:23:40;15.00;99.90
16523;DHT22;19889;52.546;13.348;2022-10-23T04:26:13;15.00;99.90
16523;DHT22;19889;52.546;13.348;2022-10-23T04:28:40;15.00;99.90
16523;DHT22;19889;52.546;13.348;2022-10-23T04:31:07;15.00;99.90
16523;DHT22;19889;52.546;13.348;2022-10-23T04:33:33;14.90;99.90
16523;DHT22;19889;52.546;13.348;2022-10-23T04:36:00;14.90;99.90
16523;DHT22;19889;52.546;13.348;2022-10-23T04:38:27;14.90;99.90
16523;DHT22;19889;52.546;13.348;2022-10-23T04:40:54;14.90;99.90
16523;DHT22;19889;52.546;13.348;2022-10-23T04:43:22;14.90;99.90
16523;DHT22;19889;52.546;13.348;2022-10-23T04:45:49;14.90;99.90
16523;DHT22;19889;52.546;13.348;2022-10-23T04:48:16;14.90;99.90
16523;DHT22;19889;52.546;13.348;2022-10-23T04:51:18;14.90;99.90
16523;DHT22;19889;52.546;13.348;2022-10-23T04:53:56;15.00;99.90
16523;DHT22;19889;52.546;13.348;2022-10-23T04:56:49;15.00;99.90
16523;DHT22;19889;52.546;13.348;2022-10-23T04:59:20;14.90;99.90
16523;DHT22;19889;52.546;13.348;2022-10-23T05:01:48;14.90;99.90
16523;DHT22;19889;52.546;13.348;2022-10-23T05:04:15;14.90;99.90
16523;DHT22;19889;52.546;13.348;2022-10-23T05:07:14;14.90;99.90
16523;DHT22;19889;52.546;13.348;2022-10-23T05:09:59;14.90;99.90
16523;DHT22;19889;52.546;13.348;2022-10-23T05:12:41;14.90;99.90
16523;DHT22;19889;52.546;13.348;2022-10-23T05:15:09;14.80;99.90
16523;DHT22;19889;52.546;13.348;2022-10-23T05:17:38;14.80;99.90
16523;DHT22;19889;52.546;13.348;2022-10-23T05:20:12;14.80;99.90
16523;DHT22;19889;52.546;13.348;2022-10-23T05:22:41;14.80;99.90
16523;DHT22;19889;52.546;13.348;2022-10-23T05:25:11;14.80;99.90
16523;DHT22;19889;52.546;13.348;2022-10-23T05:27:42;14.90;99.90
16523;DHT22;19889;52.546;13.348;2022-10-23T05:30:13;14.80;99.90
16523;DHT22;19889;52.546;13.348;2022-10-23T05:32:40;14.80;99.90
16523;DHT22;19889;52.546;13.348;2022-10-23T05:35:08;14.80;99.90
16523;DHT22;19889;52.546;13.348;2022-10-23T05:37:37;14.80;99.90
16523;DHT22;19889;52.546;13.348;2022-10-23T05:40:12;14.80;99.90
16523;DHT22;19889;52.546;13.348;2022-10-23T05:42:41;14.80;99.90
16523;DHT22;19889;52.546;13.348;2022-10-23T05:45:10;14.80;99.90
16523;DHT22;19889;52.546;13.348;2022-10-23T05:47:56;14.80;99.90
16523;DHT22;19889;52.546;13.348;2022-10-23T05:50:49;14.80;99.90
16523;DHT22;19889;52.546;13.348;2022-10-23T05:53:21;14.80;99.90
16523;DHT22;19889;52.546;13.348;2022-10-23T05:56:14;14.80;99.90
16523;DHT22;19889;52.546;13.348;2022-10-23T05:58:51;14.70;99.90
16523;DHT22;19889;52.546;13.348;2022-10-23T06:01:28;14.70;99.90
16523;DHT22;19889;52.546;13.348;2022-10-23T06:04:03;14.70;99.90
16523;DHT22;19889;52.546;13.348;2022-10-23T06:06:59;14.70;99.90
16523;DHT22;19889;52.546;13.348;2022-10-23T06:09:25;14.60;99.90
16523;DHT22;19889;52.546;13.348;2022-10-23T06:11:56;14.60;99.90
16523;DHT22;19889;52.546;13.348;2022-10-23T06:14:22;14.60;99.90
16523;DHT22;19889;52.546;13.348;2022-10-23T06:16:50;14.60;99.90
16523;DHT22;19889;52.546;13.348;2022-10-23T06:19:19;14.60;99.90
16523;DHT22;19889;52.546;13.348;2022-10-23T06:21:50;14.60;99.90
16523;DHT22;19889;52.546;13.348;2022-10-23T06:24:17;14.60;99.90
16523;DHT22;19889;52.546;13.348;2022-10-23T06:26:57;14.60;99.90
16523;DHT22;19889;52.546;13.348;2022-10-23T06:29:39;14.60;99.90
16523;DHT22;19889;52.546;13.348;2022-10-23T06:32:06;14.60;99.90
16523;DHT22;19889;52.546;13.348;2022-10-23T06:34:35;14.60;99.90
16523;DHT22;19889;52.546;13.348;2022-10-23T06:37:03;14.60;99.90
16523;DHT22;19889;52.546;13.348;2022-10-23T06:39:39;14.60;99.90
16523;DHT22;19889;52.546;13.348;2022-10-23T06:42:18;14.60;99.90
16523;DHT22;19889;52.546;13.348;2022-10-23T06:44:54;14.60;99.90
16523;DHT22;19889;52.546;13.348;2022-10-23T06:47:41;14.60;99.90
16523;DHT22;19889;52.546;13.348;2022-10-23T06:50:28;14.60;99.90
16523;DHT22;19889;52.546;13.348;2022-10-23T06:52:57;14.60;99.90
16523;DHT22;19889;52.546;13.348;2022-10-23T06:55:23;14.60;99.90
16523;DHT22;19889;52.546;13.348;2022-10-23T06:57:50;14.60;99.90
16523;DHT22;19889;52.546;13.348;2022-10-23T07:00:17;14.60;99.90
16523;DHT22;19889;52.546;13.348;2022-10-23T07:02:50;14.60;99.90
16523;DHT22;19889;52.546;13.348;2022-10-23T07:05:18;14.60;99.90
16523;DHT22;19889;52.546;13.348;2022-10-23T07:07:47;14.60;99.90
16523;DHT22;19889;52.546;13.348;2022-10-23T07:10:20;14.60;99.90
16523;DHT22;19889;52.546;13.348;2022-10-23T07:12:53;14.70;99.90
16523;DHT22;19889;52.546;13.348;2022-10-23T07:15:34;14.70;99.90
16523;DHT22;19889;52.546;13.348;2022-10-23T07:18:01;14.70;99.90
16523;DHT22;19889;52.546;13.348;2022-10-23T07:20:41;14.70;99.90
16523;DHT22;19889;52.546;13.348;2022-10-23T07:23:10;14.70;99.90
16523;DHT22;19889;52.546;13.348;2022-10-23T07:25:38;14.70;99.90
16523;DHT22;19889;52.546;13.348;2022-10-23T07:28:06;14.70;99.90
16523;DHT22;19889;52.546;13.348;2022-10-23T07:30:32;14.80;99.90
16523;DHT22;19889;52.546;13.348;2022-10-23T07:33:00;14.70;99.90
16523;DHT22;19889;52.546;13.348;2022-10-23T07:35:39;14.80;99.90
16523;DHT22;19889;52.546;13.348;2022-10-23T07:38:11;14.80;99.90
16523;DHT22;19889;52.546;13.348;2022-10-23T07:40:42;14.80;99.90
16523;DHT22;19889;52.546;13.348;2022-10-23T07:43:10;14.80;99.90
16523;DHT22;19889;52.546;13.348;2022-10-23T07:45:37;14.80;99.90
16523;DHT22;19889;52.546;13.348;2022-10-23T07:48:18;14.80;99.90
16523;DHT22;19889;52.546;13.348;2022-10-23T07:51:05;14.80;99.90
16523;DHT22;19889;52.546;13.348;2022-10-23T07:53:38;14.90;99.90
16523;DHT22;19889;52.546;13.348;2022-10-23T07:56:14;14.90;99.90
16523;DHT22;19889;52.546;13.348;2022-10-23T07:59:02;14.90;99.90
16523;DHT22;19889;52.546;13.348;2022-10-23T08:01:30;14.90;99.90
16523;DHT22;19889;52.546;13.348;2022-10-23T08:03:58;15.00;99.90
16523;DHT22;19889;52.546;13.348;2022-10-23T08:06:26;15.00;99.90
16523;DHT22;19889;52.546;13.348;2022-10-23T08:08:54;15.00;99.90
16523;DHT22;19889;52.546;13.348;2022-10-23T08:11:22;15.00;99.90
16523;DHT22;19889;52.546;13.348;2022-10-23T08:13:52;15.10;99.90
16523;DHT22;19889;52.546;13.348;2022-10-23T08:16:20;15.20;99.90
16523;DHT22;19889;52.546;13.348;2022-10-23T08:19:02;15.20;99.90
16523;DHT22;19889;52.546;13.348;2022-10-23T08:21:30;15.30;99.90
16523;DHT22;19889;52.546;13.348;2022-10-23T08:23:59;15.30;99.90
16523;DHT22;19889;52.546;13.348;2022-10-23T08:26:27;15.30;99.90
16523;DHT22;19889;52.546;13.348;2022-10-23T08:28:56;15.30;99.90
16523;DHT22;19889;52.546;13.348;2022-10-23T08:31:25;15.40;99.90
16523;DHT22;19889;52.546;13.348;2022-10-23T08:34:09;15.40;99.90
16523;DHT22;19889;52.546;13.348;2022-10-23T08:36:36;15.70;99.90
16523;DHT22;19889;52.546;13.348;2022-10-23T08:39:05;15.40;99.90
16523;DHT22;19889;52.546;13.348;2022-10-23T08:41:35;15.40;99.90
16523;DHT22;19889;52.546;13.348;2022-10-23T08:44:19;15.50;99.90
16523;DHT22;19889;52.546;13.348;2022-10-23T08:46:49;15.50;99.90
16523;DHT22;19889;52.546;13.348;2022-10-23T08:49:42;15.50;99.90
16523;DHT22;19889;52.546;13.348;2022-10-23T08:52:15;15.50;99.90
16523;DHT22;19889;52.546;13.348;2022-10-23T08:54:55;15.50;99.90
16523;DHT22;19889;52.546;13.348;2022-10-23T08:57:27;15.50;99.90
16523;DHT22;19889;52.546;13.348;2022-10-23T09:00:00;15.60;99.90
16523;DHT22;19889;52.546;13.348;2022-10-23T09:02:32;15.60;99.90
16523;DHT22;19889;52.546;13.348;2022-10-23T09:05:01;15.60;99.90
16523;DHT22;19889;52.546;13.348;2022-10-23T09:07:36;15.60;99.90
16523;DHT22;19889;52.546;13.348;2022-10-23T09:10:22;15.60;99.90
16523;DHT22;19889;52.546;13.348;2022-10-23T09:12:56;15.70;99.90
16523;DHT22;19889;52.546;13.348;2022-10-23T09:15:28;15.70;99.90
16523;DHT22;19889;52.546;13.348;2022-10-23T09:17:58;15.70;99.90
16523;DHT22;19889;52.546;13.348;2022-10-23T09:20:29;15.70;99.90
16523;DHT22;19889;52.546;13.348;2022-10-23T09:23:00;15.70;99.90
16523;DHT22;19889;52.546;13.348;2022-10-23T09:25:33;15.80;99.90
16523;DHT22;19889;52.546;13.348;2022-10-23T09:28:01;15.80;99.90
16523;DHT22;19889;52.546;13.348;2022-10-23T09:30:30;15.90;99.90
16523;DHT22;19889;52.546;13.348;2022-10-23T09:32:57;15.90;99.90
16523;DHT22;19889;52.546;13.348;2022-10-23T09:35:26;15.90;99.90
16523;DHT22;19889;52.546;13.348;2022-10-23T09:37:54;15.90;99.90
16523;DHT22;19889;52.546;13.348;2022-10-23T09:40:26;15.90;99.90
16523;DHT22;19889;52.546;13.348;2022-10-23T09:42:58;16.00;99.90
16523;DHT22;19889;52.546;13.348;2022-10-23T09:45:28;16.00;99.90
16523;DHT22;19889;52.546;13.348;2022-10-23T09:48:05;16.00;99.90
16523;DHT22;19889;52.546;13.348;2022-10-23T09:50:32;16.00;99.90
16523;DHT22;19889;52.546;13.348;2022-10-23T09:52:59;16.10;99.90
16523;DHT22;19889;52.546;13.348;2022-10-23T09:55:25;16.10;99.90
16523;DHT22;19889;52.546;13.348;2022-10-23T09:57:55;16.10;99.90
16523;DHT22;19889;52.546;13.348;2022-10-23T10:00:24;16.10;99.90
16523;DHT22;19889;52.546;13.348;2022-10-23T10:02:56;16.20;99.90
16523;DHT22;19889;52.546;13.348;2022-10-23T10:05:36;16.20;99.90
16523;DHT22;19889;52.546;13.348;2022-10-23T10:08:13;16.20;99.90
16523;DHT22;19889;52.546;13.348;2022-10-23T10:10:46;16.20;99.90
16523;DHT22;19889;52.546;13.348;2022-10-23T10:13:34;16.30;99.90
16523;DHT22;19889;52.546;13.348;2022-10-23T10:16:12;16.30;99.90
16523;DHT22;19889;52.546;13.348;2022-10-23T10:18:42;16.30;99.90
16523;DHT22;19889;52.546;13.348;2022-10-23T10:21:15;16.30;99.90
16523;DHT22;19889;52.546;13.348;2022-10-23T10:23:47;16.40;99.90
16523;DHT22;19889;52.546;13.348;2022-10-23T10:26:24;16.40;99.90
16523;DHT22;19889;52.546;13.348;2022-10-23T10:29:04;16.50;99.90
16523;DHT22;19889;52.546;13.348;2022-10-23T10:31:43;16.50;99.90
16523;DHT22;19889;52.546;13.348;2022-10-23T10:34:15;16.60;99.90
16523;DHT22;19889;52.546;13.348;2022-10-23T10:36:49;16.60;99.90
16523;DHT22;19889;52.546;13.348;2022-10-23T10:39:27;16.50;99.90
16523;DHT22;19889;52.546;13.348;2022-10-23T10:42:15;16.50;99.90
16523;DHT22;19889;52.546;13.348;2022-10-23T10:45:06;16.60;99.90
16523;DHT22;19889;52.546;13.348;2022-10-23T10:47:48;16.70;99.90
16523;DHT22;19889;52.546;13.348;2022-10-23T10:50:25;16.70;99.90
16523;DHT22;19889;52.546;13.348;2022-10-23T10:53:15;16.80;99.90
16523;DHT22;19889;52.546;13.348;2022-10-23T10:55:46;16.80;99.90
16523;DHT22;19889;52.546;13.348;2022-10-23T10:58:17;16.90;99.90
16523;DHT22;19889;52.546;13.348;2022-10-23T11:00:51;16.90;99.90
16523;DHT22;19889;52.546;13.348;2022-10-23T11:03:29;16.90;99.90
16523;DHT22;19889;52.546;13.348;2022-10-23T11:06:01;17.00;99.90
16523;DHT22;19889;52.546;13.348;2022-10-23T11:08:34;16.90;99.90
16523;DHT22;19889;52.546;13.348;2022-10-23T11:11:05;17.00;99.90
16523;DHT22;19889;52.546;13.348;2022-10-23T11:13:34;17.00;99.90
16523;DHT22;19889;52.546;13.348;2022-10-23T11:16:07;17.00;99.90
16523;DHT22;19889;52.546;13.348;2022-10-23T11:18:36;17.10;99.90
16523;DHT22;19889;52.546;13.348;2022-10-23T11:21:14;17.10;99.90
16523;DHT22;19889;52.546;13.348;2022-10-23T11:26:40;17.20;99.90
16523;DHT22;19889;52.546;13.348;2022-10-23T11:29:49;17.20;99.90
16523;DHT22;19889;52.546;13.348;2022-10-23T11:32:35;17.20;99.90
16523;DHT22;19889;52.546;13.348;2022-10-23T11:35:22;17.30;99.90
16523;DHT22;19889;52.546;13.348;2022-10-23T11:38:13;17.30;99.90
16523;DHT22;19889;52.546;13.348;2022-10-23T11:40:43;17.30;99.90
16523;DHT22;19889;52.546;13.348;2022-10-23T11:43:11;17.40;99.90
16523;DHT22;19889;52.546;13.348;2022-10-23T11:45:39;17.40;99.90
16523;DHT22;19889;52.546;13.348;2022-10-23T11:48:21;17.40;99.90
16523;DHT22;19889;52.546;13.348;2022-10-23T11:50:50;17.50;99.90
16523;DHT22;19889;52.546;13.348;2022-10-23T11:53:35;17.50;99.90
16523;DHT22;19889;52.546;13.348;2022-10-23T11:56:04;17.50;99.90
16523;DHT22;19889;52.546;13.348;2022-10-23T11:58:48;17.50;99.90
16523;DHT22;19889;52.546;13.348;2022-10-23T12:01:24;17.50;99.90
16523;DHT22;19889;52.546;13.348;2022-10-23T12:03:58;17.50;99.90
16523;DHT22;19889;52.546;13.348;2022-10-23T12:06:29;17.90;99.90
16523;DHT22;19889;52.546;13.348;2022-10-23T12:09:00;17.50;99.90
16523;DHT22;19889;52.546;13.348;2022-10-23T12:11:40;17.50;99.90
16523;DHT22;19889;52.546;13.348;2022-10-23T12:14:30;17.60;99.90
16523;DHT22;19889;52.546;13.348;2022-10-23T12:16:58;17.60;99.90
16523;DHT22;19889;52.546;13.348;2022-10-23T12:19:29;17.60;99.90
16523;DHT22;19889;52.546;13.348;2022-10-23T12:21:58;17.70;99.90
16523;DHT22;19889;52.546;13.348;2022-10-23T12:24:46;17.70;99.90
16523;DHT22;19889;52.546;13.348;2022-10-23T12:27:29;17.70;99.90
16523;DHT22;19889;52.546;13.348;2022-10-23T12:30:11;17.70;99.90
16523;DHT22;19889;52.546;13.348;2022-10-23T12:32:50;17.80;99.90
16523;DHT22;19889;52.546;13.348;2022-10-23T12:35:55;17.80;99.90
16523;DHT22;19889;52.546;13.348;2022-10-23T12:38:29;17.80;99.90
16523;DHT22;19889;52.546;13.348;2022-10-23T12:41:00;17.80;99.90
16523;DHT22;19889;52.546;13.348;2022-10-23T12:43:30;17.90;99.90
16523;DHT22;19889;52.546;13.348;2022-10-23T12:46:02;17.90;99.90
16523;DHT22;19889;52.546;13.348;2022-10-23T12:48:32;17.90;99.90
16523;DHT22;19889;52.546;13.348;2022-10-23T12:51:00;17.90;99.90
16523;DHT22;19889;52.546;13.348;2022-10-23T12:53:27;17.90;99.90
16523;DHT22;19889;52.546;13.348;2022-10-23T12:55:57;17.90;99.90
16523;DHT22;19889;52.546;13.348;2022-10-23T12:58:27;17.90;99.90
16523;DHT22;19889;52.546;13.348;2022-10-23T13:00:59;17.80;99.90
16523;DHT22;19889;52.546;13.348;2022-10-23T13:03:27;17.90;99.90
16523;DHT22;19889;52.546;13.348;2022-10-23T13:05:56;17.90;99.90
16523;DHT22;19889;52.546;13.348;2022-10-23T13:08:31;17.90;99.90
16523;DHT22;19889;52.546;13.348;2022-10-23T13:11:21;17.90;99.90
16523;DHT22;19889;52.546;13.348;2022-10-23T13:13:50;17.90;99.90
16523;DHT22;19889;52.546;13.348;2022-10-23T13:16:19;17.90;99.90
16523;DHT22;19889;52.546;13.348;2022-10-23T13:18:46;17.90;99.90
16523;DHT22;19889;52.546;13.348;2022-10-23T13:21:17;18.00;99.90
16523;DHT22;19889;52.546;13.348;2022-10-23T13:23:46;17.90;99.90
16523;DHT22;19889;52.546;13.348;2022-10-23T13:26:26;18.00;99.90
16523;DHT22;19889;52.546;13.348;2022-10-23T13:28:54;18.00;99.90
16523;DHT22;19889;52.546;13.348;2022-10-23T13:31:28;18.00;99.90
16523;DHT22;19889;52.546;13.348;2022-10-23T13:34:17;18.00;99.90
16523;DHT22;19889;52.546;13.348;2022-10-23T13:36:50;18.00;99.90
16523;DHT22;19889;52.546;13.348;2022-10-23T13:39:22;18.00;99.90
16523;DHT22;19889;52.546;13.348;2022-10-23T13:41:49;18.10;99.90
16523;DHT22;19889;52.546;13.348;2022-10-23T13:44:19;18.00;99.90
16523;DHT22;19889;52.546;13.348;2022-10-23T13:46:46;18.10;99.90
16523;DHT22;19889;52.546;13.348;2022-10-23T13:49:13;18.10;99.90
16523;DHT22;19889;52.546;13.348;2022-10-23T13:51:44;18.70;99.90
16523;DHT22;19889;52.546;13.348;2022-10-23T13:54:15;18.10;99.90
16523;DHT22;19889;52.546;13.348;2022-10-23T13:56:44;18.10;99.90
16523;DHT22;19889;52.546;13.348;2022-10-23T13:59:11;18.10;99.90
16523;DHT22;19889;52.546;13.348;2022-10-23T14:01:38;18.10;99.90
16523;DHT22;19889;52.546;13.348;2022-10-23T14:04:06;18.10;99.90
16523;DHT22;19889;52.546;13.348;2022-10-23T14:06:33;18.10;99.90
16523;DHT22;19889;52.546;13.348;2022-10-23T14:09:03;18.00;99.90
16523;DHT22;19889;52.546;13.348;2022-10-23T14:11:30;18.00;99.90
16523;DHT22;19889;52.546;13.348;2022-10-23T14:13:59;18.10;99.90
16523;DHT22;19889;52.546;13.348;2022-10-23T14:16:26;18.00;99.90
16523;DHT22;19889;52.546;13.348;2022-10-23T14:18:53;18.10;99.90
16523;DHT22;19889;52.546;13.348;2022-10-23T14:21:21;18.00;99.90
16523;DHT22;19889;52.546;13.348;2022-10-23T14:23:49;18.10;99.90
16523;DHT22;19889;52.546;13.348;2022-10-23T14:26:17;18.00;99.90
16523;DHT22;19889;52.546;13.348;2022-10-23T14:28:44;18.00;99.90
16523;DHT22;19889;52.546;13.348;2022-10-23T14:31:14;18.00;99.90
16523;DHT22;19889;52.546;13.348;2022-10-23T14:33:42;18.00;99.90
16523;DHT22;19889;52.546;13.348;2022-10-23T14:36:09;18.00;99.90
16523;DHT22;19889;52.546;13.348;2022-10-23T14:38:36;18.00;99.90
16523;DHT22;19889;52.546;13.348;2022-10-23T14:41:09;18.00;99.90
16523;DHT22;19889;52.546;13.348;2022-10-23T14:43:36;18.00;99.90
16523;DHT22;19889;52.546;13.348;2022-10-23T14:46:10;18.00;99.90
16523;DHT22;19889;52.546;13.348;2022-10-23T14:48:39;18.00;99.90
16523;DHT22;19889;52.546;13.348;2022-10-23T14:51:14;18.00;99.90
16523;DHT22;19889;52.546;13.348;2022-10-23T14:53:42;18.00;99.90
16523;DHT22;19889;52.546;13.348;2022-10-23T14:56:09;17.90;99.90
16523;DHT22;19889;52.546;13.348;2022-10-23T14:58:35;18.00;99.90
16523;DHT22;19889;52.546;13.348;2022-10-23T15:01:02;18.00;99.90
16523;DHT22;19889;52.546;13.348;2022-10-23T15:03:29;18.00;99.90
16523;DHT22;19889;52.546;13.348;2022-10-23T15:05:57;18.00;99.90
16523;DHT22;19889;52.546;13.348;2022-10-23T15:08:24;18.00;99.90
16523;DHT22;19889;52.546;13.348;2022-10-23T15:10:51;18.00;99.90
16523;DHT22;19889;52.546;13.348;2022-10-23T15:13:17;18.00;99.90
16523;DHT22;19889;52.546;13.348;2022-10-23T15:15:44;18.00;99.90
16523;DHT22;19889;52.546;13.348;2022-10-23T15:18:11;17.90;99.90
16523;DHT22;19889;52.546;13.348;2022-10-23T15:20:38;17.90;99.90
16523;DHT22;19889;52.546;13.348;2022-10-23T15:23:06;18.00;99.90
16523;DHT22;19889;52.546;13.348;2022-10-23T15:25:33;17.90;99.90
16523;DHT22;19889;52.546;13.348;2022-10-23T15:27:59;17.90;99.90
16523;DHT22;19889;52.546;13.348;2022-10-23T15:30:26;17.90;99.90
16523;DHT22;19889;52.546;13.348;2022-10-23T15:32:53;17.90;99.90
16523;DHT22;19889;52.546;13.348;2022-10-23T15:35:20;17.90;99.90
16523;DHT22;19889;52.546;13.348;2022-10-23T15:37:46;18.00;99.90
16523;DHT22;19889;52.546;13.348;2022-10-23T15:40:14;17.90;99.90
16523;DHT22;19889;52.546;13.348;2022-10-23T15:42:41;17.90;99.90
16523;DHT22;19889;52.546;13.348;2022-10-23T15:45:09;17.90;99.90
16523;DHT22;19889;52.546;13.348;2022-10-23T15:47:38;17.90;99.90
16523;DHT22;19889;52.546;13.348;2022-10-23T15:50:06;17.90;99.90